Time;durP1;ratioP1;P1;durP2;ratioP2;P2;SDS_P1;SDS_P2;PMS_P1;PMS_P2;Temp;Humidity;BMP_temperature;BMP_pressure;BME280_temperature;BME280_humidity;BME280_pressure;Samples;Min_cycle;Max_cycle;Signal;HPM_P1;HPM_P2
2022/01/22 00:01:37;;;;;;;17.93;9.47;;;;;;;;;;4752351;30;20458;-76
2022/01/22 00:04:03;;;;;;;17.17;9.07;;;;;;;;;;4752811;30;20047;-76
2022/01/22 00:06:28;;;;;;;14.73;8.30;;;;;;;;;;4745963;30;20038;-75
2022/01/22 00:08:53;;;;;;;15.43;8.67;;;;;;;;;;4750235;30;20052;-76
2022/01/22 00:11:19;;;;;;;14.07;8.47;;;;;;;;;;4747570;30;20037;-77
2022/01/22 00:16:28;;;;;;;17.65;7.97;;;;;;;;;;4745169;30;20113;-75
2022/01/22 00:18:53;;;;;;;17.83;9.67;;;;;;;;;;4752500;30;20036;-75
2022/01/22 00:21:19;;;;;;;18.40;9.27;;;;;;;;;;4746009;30;20048;-75
2022/01/22 00:23:54;;;;;;;12.80;7.93;;;;;;;;;;4752599;30;20061;-75
2022/01/22 00:26:20;;;;;;;15.32;9.00;;;;;;;;;;4747911;30;20524;-75
2022/01/22 00:28:45;;;;;;;14.03;7.73;;;;;;;;;;4747647;30;20040;-75
2022/01/22 00:31:10;;;;;;;16.37;8.87;;;;;;;;;;4749384;30;20631;-77
2022/01/22 00:33:36;;;;;;;14.70;8.17;;;;;;;;;;4751056;30;20051;-77
2022/01/22 00:36:01;;;;;;;13.80;8.10;;;;;;;;;;4747303;30;20056;-77
2022/01/22 00:38:27;;;;;;;16.83;8.17;;;;;;;;;;4751599;30;20479;-77
2022/01/22 00:40:52;;;;;;;13.20;7.30;;;;;;;;;;4748321;30;20122;-78
2022/01/22 00:43:18;;;;;;;12.53;6.73;;;;;;;;;;4751602;30;20067;-77
2022/01/22 00:45:44;;;;;;;15.52;8.23;;;;;;;;;;4748313;30;20029;-77
2022/01/22 00:48:09;;;;;;;16.57;7.73;;;;;;;;;;4752297;30;20055;-78
2022/01/22 00:50:35;;;;;;;15.57;8.33;;;;;;;;;;4751200;30;20513;-77
2022/01/22 00:53:00;;;;;;;15.23;7.90;;;;;;;;;;4743645;30;20040;-75
2022/01/22 00:55:25;;;;;;;16.03;8.80;;;;;;;;;;4750756;30;20051;-75
2022/01/22 00:57:51;;;;;;;12.00;7.20;;;;;;;;;;4752258;30;20048;-75
2022/01/22 01:00:17;;;;;;;14.27;7.73;;;;;;;;;;4751047;30;20044;-75
2022/01/22 01:02:43;;;;;;;17.38;9.20;;;;;;;;;;4749580;30;20119;-75
2022/01/22 01:05:10;;;;;;;13.80;8.05;;;;;;;;;;4751853;30;20044;-75
2022/01/22 01:07:35;;;;;;;;;;;;;;;;;;4745636;30;20076;-75
2022/01/22 01:10:01;;;;;;;12.93;7.05;;;;;;;;;;4750899;30;20370;-75
2022/01/22 01:12:27;;;;;;;14.03;7.83;;;;;;;;;;4746861;30;20044;-75
2022/01/22 01:15:22;;;;;;;13.68;7.78;;;;;;;;;;4751849;30;20032;-75
2022/01/22 01:34:01;;;;;;;19.10;9.95;;;;;;;;;;4751539;30;20047;-78
2022/01/22 01:36:28;;;;;;;17.35;9.50;;;;;;;;;;4748982;30;20140;-78
2022/01/22 01:38:58;;;;;;;17.40;10.98;;;;;;;;;;4752040;30;20107;-78
2022/01/22 01:41:39;;;;;;;24.38;11.55;;;;;;;;;;4750693;30;20508;-78
2022/01/22 01:44:05;;;;;;;24.35;11.68;;;;;;;;;;4754802;30;20491;-74
2022/01/22 01:46:32;;;;;;;24.17;12.77;;;;;;;;;;4750957;30;20074;-74
2022/01/22 01:48:58;;;;;;;20.58;11.55;;;;;;;;;;4754997;30;20044;-75
2022/01/22 01:51:27;;;;;;;16.48;9.43;;;;;;;;;;4750430;30;20479;-75
2022/01/22 01:54:03;;;;;;;19.10;9.35;;;;;;;;;;4751182;30;20135;-77
2022/01/22 01:59:16;;;;;;;16.15;9.65;;;;;;;;;;4727522;30;20059;-77
2022/01/22 02:01:41;;;;;;;15.00;8.25;;;;;;;;;;4748402;30;20044;-77
2022/01/22 02:04:09;;;;;;;16.03;9.07;;;;;;;;;;4754811;30;20109;-77
2022/01/22 02:06:35;;;;;;;16.85;9.48;;;;;;;;;;4750311;30;20036;-77
2022/01/22 02:09:01;;;;;;;16.37;8.10;;;;;;;;;;4754663;30;20393;-77
2022/01/22 02:11:28;;;;;;;13.30;7.40;;;;;;;;;;4751576;30;20496;-77
2022/01/22 02:24:49;;;;;;;13.63;8.82;;;;;;;;;;4752041;30;20086;-74
2022/01/22 02:27:15;;;;;;;15.38;8.50;;;;;;;;;;4751563;30;20444;-74
2022/01/22 02:29:40;;;;;;;14.90;8.20;;;;;;;;;;4754242;30;20101;-74
2022/01/22 02:32:43;;;;;;;15.00;8.67;;;;;;;;;;4748346;30;20044;-76
2022/01/22 02:35:05;;;;;;;14.85;7.22;;;;;;;;;;4748766;30;20067;-76
2022/01/22 02:37:35;;;;;;;14.23;8.10;;;;;;;;;;4752629;30;20044;-76
2022/01/22 02:40:12;;;;;;;12.25;7.78;;;;;;;;;;4753739;30;20058;-76
2022/01/22 02:42:38;;;;;;;17.55;9.70;;;;;;;;;;4748400;30;20101;-76
2022/01/22 02:45:10;;;;;;;15.83;9.10;;;;;;;;;;4753429;30;20051;-76
2022/01/22 02:47:36;;;;;;;15.98;8.25;;;;;;;;;;4753122;30;20175;-76
2022/01/22 02:50:04;;;;;;;15.63;9.33;;;;;;;;;;4753077;30;20080;-76
2022/01/22 02:52:29;;;;;;;16.90;9.30;;;;;;;;;;4751554;30;20072;-76
2022/01/22 02:54:56;;;;;;;15.83;8.37;;;;;;;;;;4753628;30;20583;-74
2022/01/22 02:57:21;;;;;;;13.45;7.60;;;;;;;;;;4752759;30;20047;-74
2022/01/22 02:59:47;;;;;;;16.70;9.00;;;;;;;;;;4752746;30;20044;-74
2022/01/22 03:02:13;;;;;;;15.03;9.23;;;;;;;;;;4749984;30;20052;-74
2022/01/22 03:04:39;;;;;;;14.25;8.50;;;;;;;;;;4751068;30;20021;-74
2022/01/22 03:07:05;;;;;;;12.90;8.15;;;;;;;;;;4749217;30;20048;-74
2022/01/22 03:09:38;;;;;;;14.98;9.02;;;;;;;;;;4749247;30;20409;-74
2022/01/22 03:20:08;;;;;;;21.33;11.45;;;;;;;;;;4753436;30;20064;-74
2022/01/22 03:27:47;;;;;;;22.42;11.40;;;;;;;;;;4752541;30;20145;-74
2022/01/22 03:30:12;;;;;;;21.42;11.02;;;;;;;;;;4752650;30;20048;-74
2022/01/22 03:32:42;;;;;;;23.30;12.37;;;;;;;;;;4749704;30;20048;-73
2022/01/22 03:37:35;;;;;;;21.42;11.35;;;;;;;;;;4748741;30;20051;-74
2022/01/22 03:40:01;;;;;;;23.95;12.27;;;;;;;;;;4752065;30;20028;-74
2022/01/22 03:42:27;;;;;;;24.08;12.57;;;;;;;;;;4752456;30;20150;-74
2022/01/22 03:44:52;;;;;;;19.43;11.47;;;;;;;;;;4753117;30;20054;-75
2022/01/22 03:47:18;;;;;;;25.10;12.53;;;;;;;;;;4751607;30;20037;-75
2022/01/22 03:49:44;;;;;;;21.97;11.17;;;;;;;;;;4751835;30;20466;-75
2022/01/22 03:52:09;;;;;;;27.23;11.77;;;;;;;;;;4751229;30;20070;-75
2022/01/22 03:54:35;;;;;;;24.07;11.80;;;;;;;;;;4752950;30;20051;-75
2022/01/22 03:57:01;;;;;;;27.90;12.13;;;;;;;;;;4747960;30;20094;-75
2022/01/22 03:59:28;;;;;;;28.23;13.65;;;;;;;;;;4751797;30;20040;-75
2022/01/22 04:04:24;;;;;;;23.23;11.00;;;;;;;;;;4751215;30;20036;-75
2022/01/22 04:09:37;;;;;;;30.33;12.82;;;;;;;;;;4752284;30;20097;-75
2022/01/22 04:12:03;;;;;;;21.27;10.18;;;;;;;;;;4747395;30;20056;-75
2022/01/22 04:14:33;;;;;;;23.77;12.13;;;;;;;;;;4752415;30;20116;-75
2022/01/22 04:17:20;;;;;;;26.58;10.45;;;;;;;;;;4750406;30;20044;-75
2022/01/22 04:25:17;;;;;;;22.73;10.90;;;;;;;;;;4752015;30;20122;-75
2022/01/22 04:27:43;;;;;;;21.75;11.35;;;;;;;;;;4751384;30;20067;-75
2022/01/22 04:30:09;;;;;;;20.43;11.20;;;;;;;;;;4752242;30;20079;-75
2022/01/22 04:32:34;;;;;;;21.93;10.20;;;;;;;;;;4743568;30;20396;-75
2022/01/22 04:35:00;;;;;;;20.83;10.17;;;;;;;;;;4752309;30;20303;-75
2022/01/22 04:37:26;;;;;;;23.75;10.68;;;;;;;;;;4750415;30;20123;-75
2022/01/22 04:39:52;;;;;;;30.23;11.43;;;;;;;;;;4752485;30;20044;-75
2022/01/22 04:42:19;;;;;;;29.40;13.45;;;;;;;;;;4746489;30;20478;-75
2022/01/22 04:44:55;;;;;;;24.17;12.13;;;;;;;;;;4752245;30;20399;-75
2022/01/22 04:55:38;;;;;;;48.22;12.48;;;;;;;;;;4749579;30;20487;-75
2022/01/22 04:58:04;;;;;;;21.60;10.98;;;;;;;;;;4746226;30;20040;-75
2022/01/22 05:00:33;;;;;;;20.65;10.20;;;;;;;;;;4751047;30;20054;-75
2022/01/22 05:03:03;;;;;;;22.02;10.82;;;;;;;;;;4750723;30;20058;-75
2022/01/22 05:05:29;;;;;;;23.13;11.50;;;;;;;;;;4745323;30;20471;-75
2022/01/22 05:07:54;;;;;;;23.55;10.23;;;;;;;;;;4742734;30;20106;-75
2022/01/22 05:10:21;;;;;;;24.47;10.87;;;;;;;;;;4746208;30;20041;-75
2022/01/22 05:12:46;;;;;;;28.23;11.60;;;;;;;;;;4751822;30;20127;-75
2022/01/22 05:15:12;;;;;;;21.77;12.13;;;;;;;;;;4746966;30;20115;-75
2022/01/22 05:17:40;;;;;;;21.97;10.73;;;;;;;;;;4747296;30;20113;-75
2022/01/22 05:20:23;;;;;;;36.58;12.05;;;;;;;;;;4742360;30;20048;-75
2022/01/22 05:23:04;;;;;;;28.40;12.23;;;;;;;;;;4747912;30;20048;-75
2022/01/22 05:25:43;;;;;;;28.33;11.68;;;;;;;;;;4748564;30;20399;-75
2022/01/22 05:38:25;;;;;;;28.40;9.88;;;;;;;;;;4745298;30;20474;-77
2022/01/22 05:40:51;;;;;;;25.20;10.93;;;;;;;;;;4746825;30;20075;-77
2022/01/22 05:43:17;;;;;;;26.97;11.73;;;;;;;;;;4754701;30;20068;-74
2022/01/22 05:45:42;;;;;;;21.40;10.23;;;;;;;;;;4747210;30;20039;-74
2022/01/22 05:48:08;;;;;;;25.00;10.60;;;;;;;;;;4755184;30;20378;-74
2022/01/22 05:53:15;;;;;;;22.00;8.60;;;;;;;;;;4746217;30;20052;-74
2022/01/22 06:01:11;;;;;;;20.13;8.60;;;;;;;;;;4747434;30;20090;-77
2022/01/22 06:03:37;;;;;;;22.08;8.65;;;;;;;;;;4753301;30;20131;-76
2022/01/22 06:06:03;;;;;;;24.57;8.20;;;;;;;;;;4748175;30;20049;-77
2022/01/22 06:08:33;;;;;;;18.65;8.93;;;;;;;;;;4753542;30;20083;-77
2022/01/22 06:11:06;;;;;;;21.23;8.57;;;;;;;;;;4752459;30;20044;-77
2022/01/22 06:13:43;;;;;;;24.00;9.43;;;;;;;;;;4753479;30;20044;-74
2022/01/22 06:16:09;;;;;;;22.00;8.80;;;;;;;;;;4750735;30;20040;-74
2022/01/22 06:18:35;;;;;;;17.75;8.50;;;;;;;;;;4754711;30;20048;-74
2022/01/22 06:21:00;;;;;;;27.47;9.80;;;;;;;;;;4752597;30;20106;-74
2022/01/22 06:23:25;;;;;;;22.17;7.90;;;;;;;;;;4753413;30;20048;-74
2022/01/22 06:25:51;;;;;;;19.73;8.33;;;;;;;;;;4747168;30;20087;-74
2022/01/22 06:28:16;;;;;;;17.60;7.17;;;;;;;;;;4753251;30;20044;-74
2022/01/22 06:30:44;;;;;;;19.67;7.77;;;;;;;;;;4747582;30;20545;-74
2022/01/22 06:33:09;;;;;;;22.85;7.60;;;;;;;;;;4751600;30;20052;-74
2022/01/22 06:35:35;;;;;;;21.97;8.33;;;;;;;;;;4752406;30;20047;-74
2022/01/22 06:38:02;;;;;;;21.77;7.47;;;;;;;;;;4748348;30;20483;-74
2022/01/22 06:42:54;;;;;;;21.97;7.97;;;;;;;;;;4752512;30;20127;-74
2022/01/22 06:45:19;;;;;;;16.23;7.43;;;;;;;;;;4751418;30;20450;-74
2022/01/22 06:47:44;;;;;;;27.17;8.97;;;;;;;;;;4748137;30;20044;-74
2022/01/22 06:50:10;;;;;;;20.17;7.77;;;;;;;;;;4752231;30;20421;-74
2022/01/22 06:52:37;;;;;;;19.07;8.00;;;;;;;;;;4749408;30;20123;-74
2022/01/22 06:55:03;;;;;;;19.90;7.38;;;;;;;;;;4744140;30;20095;-74
2022/01/22 06:57:28;;;;;;;20.52;7.00;;;;;;;;;;4750704;30;20137;-74
2022/01/22 06:59:54;;;;;;;25.00;7.53;;;;;;;;;;4753546;30;20044;-74
2022/01/22 07:02:20;;;;;;;24.83;9.03;;;;;;;;;;4750805;30;20048;-74
2022/01/22 07:04:46;;;;;;;26.80;8.15;;;;;;;;;;4753619;30;20036;-74
2022/01/22 07:07:12;;;;;;;20.90;8.03;;;;;;;;;;4752755;30;20066;-74
2022/01/22 07:09:37;;;;;;;18.95;7.10;;;;;;;;;;4752613;30;20048;-74
2022/01/22 07:12:04;;;;;;;24.10;7.73;;;;;;;;;;4743428;30;20056;-74
2022/01/22 07:14:30;;;;;;;;;;;;;;;;;;4751417;30;20036;-74
2022/01/22 07:16:55;;;;;;;21.40;7.30;;;;;;;;;;4746006;30;19929;-74
2022/01/22 07:19:21;;;;;;;21.40;7.60;;;;;;;;;;4753319;30;20048;-74
2022/01/22 07:21:55;;;;;;;24.05;7.28;;;;;;;;;;4743492;30;20051;-74
2022/01/22 07:24:26;;;;;;;22.73;7.88;;;;;;;;;;4753297;30;20054;-74
2022/01/22 07:26:52;;;;;;;24.00;6.85;;;;;;;;;;4744888;30;20551;-74
2022/01/22 07:29:17;;;;;;;20.35;7.32;;;;;;;;;;4752263;30;20052;-74
2022/01/22 07:31:42;;;;;;;18.83;7.70;;;;;;;;;;4745066;30;20438;-73
2022/01/22 07:34:08;;;;;;;17.70;7.40;;;;;;;;;;4753453;30;20039;-73
2022/01/22 07:36:33;;;;;;;18.57;6.57;;;;;;;;;;4748884;30;20048;-74
2022/01/22 07:38:59;;;;;;;20.17;7.17;;;;;;;;;;4753136;30;20482;-74
2022/01/22 07:41:24;;;;;;;19.27;6.60;;;;;;;;;;4750344;30;20422;-73
2022/01/22 07:43:50;;;;;;;18.40;6.23;;;;;;;;;;4753269;30;20127;-74
2022/01/22 07:46:15;;;;;;;23.50;8.17;;;;;;;;;;4745395;30;20040;-73
2022/01/22 07:48:40;;;;;;;24.03;8.70;;;;;;;;;;4753248;30;20089;-73
2022/01/22 07:51:06;;;;;;;22.77;8.90;;;;;;;;;;4745417;30;20051;-73
2022/01/22 07:53:32;;;;;;;19.27;8.00;;;;;;;;;;4752922;30;20037;-73
2022/01/22 07:55:57;;;;;;;19.57;7.80;;;;;;;;;;4748402;30;20088;-73
2022/01/22 07:58:22;;;;;;;21.40;7.47;;;;;;;;;;4749138;30;20037;-75
2022/01/22 08:00:48;;;;;;;29.20;9.73;;;;;;;;;;4752177;30;20036;-75
2022/01/22 08:03:13;;;;;;;23.43;8.13;;;;;;;;;;4752351;30;20506;-75
2022/01/22 08:05:38;;;;;;;20.67;8.27;;;;;;;;;;4749453;30;20051;-77
2022/01/22 08:08:04;;;;;;;28.27;10.20;;;;;;;;;;4752561;30;20578;-77
2022/01/22 08:10:31;;;;;;;31.20;9.93;;;;;;;;;;4752617;30;20040;-78
2022/01/22 08:12:56;;;;;;;29.42;10.65;;;;;;;;;;4752687;30;20441;-75
2022/01/22 08:15:21;;;;;;;30.83;11.70;;;;;;;;;;4752628;30;20102;-75
2022/01/22 08:17:47;;;;;;;30.47;11.83;;;;;;;;;;4751972;30;20066;-74
2022/01/22 08:20:16;;;;;;;24.07;9.37;;;;;;;;;;4752710;30;20474;-74
2022/01/22 08:22:42;;;;;;;26.02;9.85;;;;;;;;;;4751369;30;20276;-74
2022/01/22 08:25:09;;;;;;;20.27;8.95;;;;;;;;;;4751629;30;20086;-74
2022/01/22 08:27:41;;;;;;;22.33;8.52;;;;;;;;;;4751228;30;20160;-74
2022/01/22 08:30:09;;;;;;;24.80;8.52;;;;;;;;;;4752572;30;20043;-74
2022/01/22 08:37:44;;;;;;;20.60;9.02;;;;;;;;;;4750885;30;20043;-77
2022/01/22 08:40:10;;;;;;;22.13;8.30;;;;;;;;;;4742036;30;20048;-77
2022/01/22 08:42:36;;;;;;;15.82;7.40;;;;;;;;;;4744142;30;20036;-77
2022/01/22 08:45:02;;;;;;;25.47;8.73;;;;;;;;;;4743121;30;20056;-77
2022/01/22 08:47:27;;;;;;;20.88;8.27;;;;;;;;;;4747609;30;20507;-77
2022/01/22 08:49:53;;;;;;;19.00;7.47;;;;;;;;;;4752387;30;20055;-74
2022/01/22 08:52:23;;;;;;;19.57;7.33;;;;;;;;;;4750255;30;20071;-74
2022/01/22 08:54:48;;;;;;;14.48;6.72;;;;;;;;;;4752353;30;20044;-74
2022/01/22 08:57:14;;;;;;;28.03;8.57;;;;;;;;;;4751810;30;20148;-74
2022/01/22 08:59:39;;;;;;;18.10;7.43;;;;;;;;;;4752222;30;20067;-74
2022/01/22 09:02:05;;;;;;;21.73;7.60;;;;;;;;;;4750909;30;20494;-77
2022/01/22 09:04:31;;;;;;;13.98;6.18;;;;;;;;;;4745839;30;20044;-76
2022/01/22 09:06:57;;;;;;;18.90;6.53;;;;;;;;;;4747085;30;20093;-76
2022/01/22 09:09:23;;;;;;;18.33;6.28;;;;;;;;;;4750971;30;20071;-77
2022/01/22 09:11:49;;;;;;;14.30;6.55;;;;;;;;;;4751280;30;20041;-77
2022/01/22 09:14:16;;;;;;;12.30;5.57;;;;;;;;;;4752214;30;20067;-77
2022/01/22 09:16:41;;;;;;;;;;;;;;;;;;4749723;30;20079;-77
2022/01/22 09:19:09;;;;;;;16.42;5.80;;;;;;;;;;4747398;30;20364;-77
2022/01/22 09:21:36;;;;;;;12.82;6.07;;;;;;;;;;4751857;30;20441;-77
2022/01/22 09:24:01;;;;;;;12.50;5.68;;;;;;;;;;4743999;30;20036;-77
2022/01/22 09:26:29;;;;;;;14.33;6.87;;;;;;;;;;4751876;30;20125;-77
2022/01/22 09:28:56;;;;;;;22.73;6.60;;;;;;;;;;4746540;30;20123;-77
2022/01/22 09:31:22;;;;;;;18.92;6.97;;;;;;;;;;4751556;30;20036;-77
2022/01/22 09:33:47;;;;;;;10.87;5.47;;;;;;;;;;4746071;30;20463;-76
2022/01/22 09:36:13;;;;;;;42.93;7.90;;;;;;;;;;4740331;30;20127;-77
2022/01/22 09:38:39;;;;;;;13.77;5.93;;;;;;;;;;4751484;30;20521;-77
2022/01/22 09:41:05;;;;;;;8.70;4.93;;;;;;;;;;4751908;30;20097;-77
2022/01/22 09:43:31;;;;;;;12.82;4.75;;;;;;;;;;4737746;30;20145;-77
2022/01/22 09:45:57;;;;;;;6.17;4.20;;;;;;;;;;4748175;30;20072;-77
2022/01/22 09:48:23;;;;;;;6.60;3.75;;;;;;;;;;4750894;30;20548;-75
2022/01/22 09:50:48;;;;;;;12.43;4.77;;;;;;;;;;4749212;30;20044;-74
2022/01/22 09:53:14;;;;;;;6.17;4.10;;;;;;;;;;4747345;30;20395;-75
2022/01/22 09:55:39;;;;;;;8.47;3.40;;;;;;;;;;4751231;30;20044;-74
2022/01/22 09:58:04;;;;;;;8.10;4.57;;;;;;;;;;4751831;30;20078;-75
2022/01/22 10:00:30;;;;;;;6.60;3.70;;;;;;;;;;4751603;30;20070;-77
2022/01/22 10:02:57;;;;;;;7.23;4.33;;;;;;;;;;4751714;30;20059;-77
2022/01/22 10:05:25;;;;;;;7.43;4.35;;;;;;;;;;4753703;30;20032;-77
2022/01/22 10:07:52;;;;;;;6.50;3.65;;;;;;;;;;4753819;30;20102;-77
2022/01/22 10:10:18;;;;;;;6.20;3.90;;;;;;;;;;4754915;30;20039;-77
2022/01/22 10:12:44;;;;;;;6.97;4.03;;;;;;;;;;4753382;30;20383;-74
2022/01/22 10:15:20;;;;;;;7.25;3.50;;;;;;;;;;4754486;30;20079;-74
2022/01/22 10:17:47;;;;;;;6.60;3.40;;;;;;;;;;4748536;30;20398;-75
2022/01/22 10:20:21;;;;;;;;;;;;;;;;;;4754610;30;20052;-74
2022/01/22 10:23:02;;;;;;;6.68;3.80;;;;;;;;;;4754662;30;19913;-73
2022/01/22 10:25:36;;;;;;;6.20;3.67;;;;;;;;;;4749012;30;20103;-74
2022/01/22 10:28:08;;;;;;;8.23;3.47;;;;;;;;;;4754579;30;20036;-75
2022/01/22 10:30:42;;;;;;;5.40;3.72;;;;;;;;;;4751187;30;20048;-75
2022/01/22 10:35:47;;;;;;;8.27;6.10;;;;;;;;;;4749302;30;20048;-74
2022/01/22 10:38:13;;;;;;;12.40;4.47;;;;;;;;;;4754531;30;20047;-74
2022/01/22 10:40:40;;;;;;;10.57;7.13;;;;;;;;;;4752648;30;20032;-74
2022/01/22 10:43:12;;;;;;;10.30;5.60;;;;;;;;;;4752827;30;20047;-74
2022/01/22 10:45:41;;;;;;;18.52;12.05;;;;;;;;;;4744361;30;20136;-76
2022/01/22 10:48:18;;;;;;;18.75;10.85;;;;;;;;;;4752981;30;20043;-76
2022/01/22 10:50:43;;;;;;;18.83;11.73;;;;;;;;;;4753790;30;20051;-74
2022/01/22 10:53:09;;;;;;;19.83;11.40;;;;;;;;;;4754070;30;20058;-76
2022/01/22 10:56:00;;;;;;;23.17;13.77;;;;;;;;;;4743355;30;20060;-75
2022/01/22 10:58:26;;;;;;;16.70;10.90;;;;;;;;;;4757844;30;20051;-77
2022/01/22 11:00:59;;;;;;;19.97;12.47;;;;;;;;;;4743811;30;20044;-78
2022/01/22 11:03:26;;;;;;;10.75;6.68;;;;;;;;;;4749649;30;20068;-78
2022/01/22 11:05:52;;;;;;;;;;;;;;;;;;4745988;30;20048;-78
2022/01/22 11:08:17;;;;;;;36.25;20.48;;;;;;;;;;4753272;30;19932;-77
2022/01/22 11:10:46;;;;;;;72.77;44.00;;;;;;;;;;4744190;30;20549;-74
2022/01/22 11:13:12;;;;;;;90.80;51.90;;;;;;;;;;4747838;30;20082;-74
2022/01/22 11:15:40;;;;;;;83.82;49.63;;;;;;;;;;4744752;30;20048;-75
2022/01/22 11:18:05;;;;;;;72.57;45.55;;;;;;;;;;4753762;30;20098;-74
2022/01/22 11:20:32;;;;;;;50.57;31.90;;;;;;;;;;4751848;30;20036;-74
2022/01/22 11:22:58;;;;;;;;;;;;;;;;;;4752835;30;20036;-74
2022/01/22 11:25:24;;;;;;;36.25;23.48;;;;;;;;;;4751201;30;19940;-74
2022/01/22 11:27:49;;;;;;;51.03;29.30;;;;;;;;;;4750599;30;20057;-74
2022/01/22 11:30:16;;;;;;;53.97;29.43;;;;;;;;;;4751467;30;20408;-74
2022/01/22 11:33:02;;;;;;;41.38;24.33;;;;;;;;;;4743997;30;20036;-74
2022/01/22 11:35:52;;;;;;;53.67;32.95;;;;;;;;;;4749583;30;20048;-74
2022/01/22 11:38:39;;;;;;;28.75;16.00;;;;;;;;;;4748930;30;20044;-74
2022/01/22 11:41:16;;;;;;;36.30;18.38;;;;;;;;;;4744042;30;20044;-77
2022/01/22 11:44:09;;;;;;;28.55;18.17;;;;;;;;;;4743654;30;20398;-77
2022/01/22 11:46:46;;;;;;;41.92;21.75;;;;;;;;;;4747597;30;20471;-77
2022/01/22 11:49:21;;;;;;;37.28;18.48;;;;;;;;;;4745594;30;20044;-77
2022/01/22 11:51:52;;;;;;;20.73;13.05;;;;;;;;;;4749813;30;20051;-77
2022/01/22 11:54:20;;;;;;;25.45;12.13;;;;;;;;;;4742659;30;20052;-76
2022/01/22 11:56:53;;;;;;;24.35;11.95;;;;;;;;;;4744692;30;20048;-77
2022/01/22 11:59:32;;;;;;;23.92;14.65;;;;;;;;;;4750222;30;20043;-77
2022/01/22 12:02:02;;;;;;;27.42;16.25;;;;;;;;;;4750672;30;20056;-77
2022/01/22 12:04:40;;;;;;;25.88;15.00;;;;;;;;;;4747785;30;20044;-77
2022/01/22 12:07:05;;;;;;;;;;;;;;;;;;4740248;30;20068;-77
2022/01/22 12:09:33;;;;;;;15.60;9.40;;;;;;;;;;4752086;30;20380;-77
2022/01/22 12:15:06;;;;;;;17.90;9.43;;;;;;;;;;4747776;30;20468;-77
2022/01/22 12:17:47;;;;;;;14.02;7.63;;;;;;;;;;4751053;30;20048;-77
2022/01/22 12:23:17;;;;;;;12.38;7.88;;;;;;;;;;4751647;30;20052;-77
2022/01/22 12:25:42;;;;;;;10.90;5.60;;;;;;;;;;4744500;30;20040;-77
2022/01/22 12:28:15;;;;;;;11.20;5.93;;;;;;;;;;4750363;30;20055;-77
2022/01/22 12:30:43;;;;;;;7.82;5.15;;;;;;;;;;4747792;30;20040;-77
2022/01/22 12:33:13;;;;;;;12.77;5.75;;;;;;;;;;4751344;30;20044;-77
2022/01/22 12:35:47;;;;;;;15.75;7.57;;;;;;;;;;4744893;30;20044;-77
2022/01/22 12:38:25;;;;;;;10.98;5.60;;;;;;;;;;4745956;30;20449;-77
2022/01/22 12:40:55;;;;;;;10.50;5.82;;;;;;;;;;4745587;30;20123;-76
2022/01/22 12:43:29;;;;;;;8.90;5.72;;;;;;;;;;4747106;30;20070;-76
2022/01/22 12:45:57;;;;;;;12.18;5.10;;;;;;;;;;4748104;30;20079;-77
2022/01/22 12:48:27;;;;;;;10.15;5.38;;;;;;;;;;4749418;30;20127;-77
2022/01/22 12:50:52;;;;;;;9.57;5.18;;;;;;;;;;4748531;30;20055;-76
2022/01/22 12:53:18;;;;;;;9.17;4.77;;;;;;;;;;4747759;30;20032;-76
2022/01/22 12:56:02;;;;;;;10.83;4.67;;;;;;;;;;4749293;30;20044;-76
2022/01/22 12:58:39;;;;;;;8.38;4.90;;;;;;;;;;4745937;30;20081;-76
2022/01/22 13:01:10;;;;;;;8.50;4.30;;;;;;;;;;4749173;30;20083;-76
2022/01/22 13:03:37;;;;;;;13.48;6.93;;;;;;;;;;4743080;30;20059;-76
2022/01/22 13:06:03;;;;;;;8.32;4.85;;;;;;;;;;4748752;30;20070;-76
2022/01/22 13:08:30;;;;;;;8.67;4.23;;;;;;;;;;4747135;30;20129;-76
2022/01/22 13:10:58;;;;;;;;;;;;;;;;;;4747705;30;20036;-76
2022/01/22 13:13:23;;;;;;;;;;;;;;;;;;4748135;30;19918;-76
2022/01/22 13:16:09;;;;;;;11.90;4.40;;;;;;;;;;4747634;30;19929;-76
2022/01/22 13:18:46;;;;;;;8.75;4.43;;;;;;;;;;4747796;30;20040;-76
2022/01/22 13:21:13;;;;;;;6.30;4.00;;;;;;;;;;4746502;30;20379;-76
2022/01/22 13:23:38;;;;;;;10.20;4.22;;;;;;;;;;4747226;30;20126;-76
2022/01/22 13:26:04;;;;;;;7.33;5.90;;;;;;;;;;4745368;30;20552;-76
2022/01/22 13:28:34;;;;;;;8.07;3.63;;;;;;;;;;4746175;30;20065;-76
2022/01/22 13:31:07;;;;;;;6.88;3.50;;;;;;;;;;4747270;30;20040;-76
2022/01/22 13:33:41;;;;;;;7.38;3.80;;;;;;;;;;4748463;30;20551;-76
2022/01/22 13:49:44;;;;;;;7.00;3.72;;;;;;;;;;4738557;30;20119;-76
2022/01/22 13:52:12;;;;;;;11.38;4.13;;;;;;;;;;4750448;30;20508;-76
2022/01/22 13:54:43;;;;;;;8.93;4.10;;;;;;;;;;4752168;30;20044;-77
2022/01/22 13:57:16;;;;;;;6.68;3.13;;;;;;;;;;4736590;30;20474;-77
2022/01/22 13:59:44;;;;;;;5.78;3.60;;;;;;;;;;4750514;30;20055;-77
2022/01/22 14:04:44;;;;;;;7.65;3.42;;;;;;;;;;4743583;30;20044;-77
2022/01/22 14:07:23;;;;;;;6.95;3.83;;;;;;;;;;4742873;30;20055;-77
2022/01/22 14:10:03;;;;;;;10.93;4.25;;;;;;;;;;4750549;30;20058;-76
2022/01/22 14:12:36;;;;;;;9.18;4.55;;;;;;;;;;4739512;30;20044;-77
2022/01/22 14:15:01;;;;;;;6.65;3.45;;;;;;;;;;4751420;30;20048;-77
2022/01/22 14:17:36;;;;;;;7.70;4.00;;;;;;;;;;4746254;30;20509;-77
2022/01/22 14:20:05;;;;;;;5.75;3.45;;;;;;;;;;4746637;30;20044;-77
2022/01/22 14:22:51;;;;;;;7.45;4.13;;;;;;;;;;4740473;30;20123;-77
2022/01/22 14:25:17;;;;;;;8.93;3.85;;;;;;;;;;4748316;30;20126;-77
2022/01/22 14:27:42;;;;;;;9.00;4.30;;;;;;;;;;4747722;30;20079;-77
2022/01/22 14:30:08;;;;;;;7.37;4.10;;;;;;;;;;4745805;30;20044;-77
2022/01/22 14:32:35;;;;;;;11.70;4.17;;;;;;;;;;4749663;30;20119;-77
2022/01/22 14:35:02;;;;;;;16.83;11.50;;;;;;;;;;4749446;30;20127;-77
2022/01/22 14:37:31;;;;;;;13.63;7.70;;;;;;;;;;4740547;30;20039;-77
2022/01/22 14:45:24;;;;;;;11.48;5.30;;;;;;;;;;4746538;30;20490;-77
2022/01/22 14:47:54;;;;;;;14.33;7.50;;;;;;;;;;4749436;30;20127;-77
2022/01/22 14:50:20;;;;;;;44.85;22.75;;;;;;;;;;4740421;30;20052;-77
2022/01/22 14:52:47;;;;;;;66.35;33.75;;;;;;;;;;4742201;30;20072;-77
2022/01/22 14:55:13;;;;;;;225.48;100.15;;;;;;;;;;4745706;30;20040;-77
2022/01/22 14:57:40;;;;;;;182.63;87.13;;;;;;;;;;4750813;30;20127;-76
2022/01/22 15:00:09;;;;;;;60.58;28.15;;;;;;;;;;4748871;30;20119;-77
2022/01/22 15:02:35;;;;;;;44.45;20.95;;;;;;;;;;4749436;30;20052;-77
2022/01/22 15:05:00;;;;;;;39.03;22.40;;;;;;;;;;4750619;30;20086;-77
2022/01/22 15:07:26;;;;;;;8.43;4.60;;;;;;;;;;4747962;30;20029;-77
2022/01/22 15:09:52;;;;;;;7.77;4.50;;;;;;;;;;4740050;30;20048;-76
2022/01/22 15:12:18;;;;;;;6.73;3.90;;;;;;;;;;4748099;30;20081;-77
2022/01/22 15:14:47;;;;;;;15.30;6.87;;;;;;;;;;4749886;30;20082;-77
2022/01/22 15:19:45;;;;;;;18.10;9.32;;;;;;;;;;4747703;30;20051;-77
2022/01/22 15:22:15;;;;;;;12.27;5.72;;;;;;;;;;4749389;30;20052;-77
2022/01/22 15:24:41;;;;;;;13.23;7.45;;;;;;;;;;4734279;30;20406;-77
2022/01/22 15:27:08;;;;;;;23.10;12.63;;;;;;;;;;4749341;30;20032;-77
2022/01/22 15:29:42;;;;;;;9.20;4.00;;;;;;;;;;4750496;30;20048;-77
2022/01/22 15:32:19;;;;;;;7.57;4.18;;;;;;;;;;4734490;30;20406;-77
2022/01/22 15:34:57;;;;;;;13.77;6.20;;;;;;;;;;4748403;30;20093;-78
2022/01/22 15:37:23;;;;;;;19.88;8.38;;;;;;;;;;4748853;30;20760;-77
2022/01/22 15:39:48;;;;;;;13.40;6.17;;;;;;;;;;4752137;30;20131;-77
2022/01/22 15:42:14;;;;;;;7.70;4.07;;;;;;;;;;4749983;30;20067;-74
2022/01/22 15:44:39;;;;;;;7.37;4.90;;;;;;;;;;4753204;30;20040;-74
2022/01/22 15:47:05;;;;;;;12.00;7.20;;;;;;;;;;4746320;30;20127;-74
2022/01/22 15:49:31;;;;;;;16.60;7.40;;;;;;;;;;4751932;30;20040;-74
2022/01/22 15:51:58;;;;;;;17.02;9.10;;;;;;;;;;4751928;30;20055;-74
2022/01/22 15:54:24;;;;;;;22.80;12.45;;;;;;;;;;4752005;30;20040;-74
2022/01/22 15:56:52;;;;;;;14.82;7.00;;;;;;;;;;4751808;30;20407;-74
2022/01/22 15:59:20;;;;;;;11.82;5.65;;;;;;;;;;4747523;30;20121;-77
2022/01/22 16:01:47;;;;;;;17.00;6.85;;;;;;;;;;4752559;30;20055;-77
2022/01/22 16:04:12;;;;;;;10.90;6.70;;;;;;;;;;4750081;30;20106;-77
2022/01/22 16:09:11;;;;;;;20.85;10.00;;;;;;;;;;4751897;30;20052;-77
2022/01/22 16:11:37;;;;;;;18.50;7.25;;;;;;;;;;4752307;30;20067;-78
2022/01/22 16:14:03;;;;;;;;;;;;;;;;;;4752472;30;20450;-77
2022/01/22 16:16:28;;;;;;;10.68;6.00;;;;;;;;;;4751263;30;19922;-77
2022/01/22 16:18:54;;;;;;;16.90;6.63;;;;;;;;;;4750727;30;20054;-77
2022/01/22 16:21:19;;;;;;;15.60;7.93;;;;;;;;;;4747465;30;20163;-77
2022/01/22 16:23:44;;;;;;;17.87;10.47;;;;;;;;;;4749258;30;20410;-77
2022/01/22 16:26:10;;;;;;;19.70;13.70;;;;;;;;;;4747752;30;20052;-77
2022/01/22 16:28:35;;;;;;;28.90;16.57;;;;;;;;;;4751355;30;20055;-77
2022/01/22 16:31:00;;;;;;;24.37;13.47;;;;;;;;;;4741190;30;20047;-77
2022/01/22 16:33:27;;;;;;;25.70;15.97;;;;;;;;;;4752052;30;20173;-77
2022/01/22 16:35:53;;;;;;;;;;;;;;;;;;4751368;30;20139;-77
2022/01/22 16:38:20;;;;;;;36.33;19.55;;;;;;;;;;4750879;30;20029;-77
2022/01/22 16:40:46;;;;;;;32.90;18.17;;;;;;;;;;4748654;30;20047;-77
2022/01/22 16:43:13;;;;;;;44.05;25.73;;;;;;;;;;4750045;30;20036;-77
2022/01/22 16:56:15;;;;;;;35.70;16.98;;;;;;;;;;4739568;30;20040;-77